sensor_id;sensor_type;location;lat;lon;timestamp;pressure;altitude;pressure_sealevel;temperature;humidity
9784;BME280;4931;44.874;-1.092;2023-02-15T00:01:07;102316.06;;;6.91;100.00
9784;BME280;4931;44.874;-1.092;2023-02-15T00:03:33;102305.56;;;6.88;100.00
9784;BME280;4931;44.874;-1.092;2023-02-15T00:05:58;102321.06;;;6.94;100.00
9784;BME280;4931;44.874;-1.092;2023-02-15T00:08:24;102318.53;;;6.99;100.00
9784;BME280;4931;44.874;-1.092;2023-02-15T00:10:49;102319.16;;;6.94;100.00
9784;BME280;4931;44.874;-1.092;2023-02-15T00:13:15;102311.41;;;6.98;100.00
9784;BME280;4931;44.874;-1.092;2023-02-15T00:15:40;102316.22;;;6.96;100.00
9784;BME280;4931;44.874;-1.092;2023-02-15T00:18:06;102318.16;;;6.89;100.00
9784;BME280;4931;44.874;-1.092;2023-02-15T00:20:31;102316.47;;;6.88;100.00
9784;BME280;4931;44.874;-1.092;2023-02-15T00:22:58;102315.63;;;6.94;100.00
9784;BME280;4931;44.874;-1.092;2023-02-15T00:25:24;102312.88;;;6.94;100.00
9784;BME280;4931;44.874;-1.092;2023-02-15T00:27:49;102323.16;;;6.92;100.00
9784;BME280;4931;44.874;-1.092;2023-02-15T00:30:15;102315.16;;;6.97;100.00
9784;BME280;4931;44.874;-1.092;2023-02-15T00:32:40;102302.56;;;6.96;100.00
9784;BME280;4931;44.874;-1.092;2023-02-15T00:35:06;102316.06;;;6.91;100.00
9784;BME280;4931;44.874;-1.092;2023-02-15T00:37:32;102311.41;;;6.98;100.00
9784;BME280;4931;44.874;-1.092;2023-02-15T00:39:58;102320.22;;;7.00;100.00
9784;BME280;4931;44.874;-1.092;2023-02-15T00:42:23;102313.06;;;6.99;100.00
9784;BME280;4931;44.874;-1.092;2023-02-15T00:44:49;102311.06;;;7.20;100.00
9784;BME280;4931;44.874;-1.092;2023-02-15T00:47:14;102313.63;;;7.14;100.00
9784;BME280;4931;44.874;-1.092;2023-02-15T00:49:40;102298.38;;;7.00;100.00
9784;BME280;4931;44.874;-1.092;2023-02-15T00:52:05;102287.50;;;6.93;100.00
9784;BME280;4931;44.874;-1.092;2023-02-15T00:54:31;102290.88;;;6.89;100.00
9784;BME280;4931;44.874;-1.092;2023-02-15T00:56:56;102289.63;;;6.85;100.00
9784;BME280;4931;44.874;-1.092;2023-02-15T00:59:22;102299.28;;;6.87;100.00
9784;BME280;4931;44.874;-1.092;2023-02-15T01:01:47;102304.69;;;6.94;100.00
9784;BME280;4931;44.874;-1.092;2023-02-15T01:04:13;102304.66;;;7.01;100.00
9784;BME280;4931;44.874;-1.092;2023-02-15T01:06:38;102315.13;;;7.04;100.00
9784;BME280;4931;44.874;-1.092;2023-02-15T01:09:03;102306.13;;;7.03;100.00
9784;BME280;4931;44.874;-1.092;2023-02-15T01:11:29;102291.25;;;6.99;100.00
9784;BME280;4931;44.874;-1.092;2023-02-15T01:13:56;102298.44;;;6.87;100.00
9784;BME280;4931;44.874;-1.092;2023-02-15T01:16:23;102297.19;;;6.82;100.00
9784;BME280;4931;44.874;-1.092;2023-02-15T01:18:49;102296.34;;;6.89;100.00
9784;BME280;4931;44.874;-1.092;2023-02-15T01:21:17;102285.03;;;6.78;100.00
9784;BME280;4931;44.874;-1.092;2023-02-15T01:23:43;102291.91;;;6.88;100.00
9784;BME280;4931;44.874;-1.092;2023-02-15T01:26:10;102294.28;;;6.77;100.00
9784;BME280;4931;44.874;-1.092;2023-02-15T01:28:36;102295.09;;;6.85;100.00
9784;BME280;4931;44.874;-1.092;2023-02-15T01:31:16;102293.84;;;6.80;100.00
9784;BME280;4931;44.874;-1.092;2023-02-15T01:33:42;102294.28;;;6.77;100.00
9784;BME280;4931;44.874;-1.092;2023-02-15T01:36:07;102292.59;;;6.83;100.00
9784;BME280;4931;44.874;-1.092;2023-02-15T01:38:34;102288.41;;;6.80;100.00
9784;BME280;4931;44.874;-1.092;2023-02-15T01:41:00;102287.97;;;6.84;100.00
9784;BME280;4931;44.874;-1.092;2023-02-15T01:43:50;102292.63;;;6.76;100.00
9784;BME280;4931;44.874;-1.092;2023-02-15T01:46:18;102288.63;;;6.72;100.00
9784;BME280;4931;44.874;-1.092;2023-02-15T01:48:50;102280.88;;;6.69;100.00
9784;BME280;4931;44.874;-1.092;2023-02-15T01:51:20;102293.03;;;6.73;100.00
9784;BME280;4931;44.874;-1.092;2023-02-15T01:54:01;102299.34;;;6.67;100.00
9784;BME280;4931;44.874;-1.092;2023-02-15T01:56:30;102289.28;;;6.68;100.00
9784;BME280;4931;44.874;-1.092;2023-02-15T01:59:00;102292.25;;;6.66;100.00
9784;BME280;4931;44.874;-1.092;2023-02-15T02:01:28;102290.13;;;6.68;100.00
9784;BME280;4931;44.874;-1.092;2023-02-15T02:06:35;102298.28;;;6.75;100.00
9784;BME280;4931;44.874;-1.092;2023-02-15T02:09:02;102295.75;;;6.73;100.00
9784;BME280;4931;44.874;-1.092;2023-02-15T02:11:27;102300.16;;;6.74;100.00
9784;BME280;4931;44.874;-1.092;2023-02-15T02:13:54;102299.16;;;6.69;100.00
9784;BME280;4931;44.874;-1.092;2023-02-15T02:22:13;102294.53;;;6.69;100.00
9784;BME280;4931;44.874;-1.092;2023-02-15T02:24:59;102297.69;;;6.66;100.00
9784;BME280;4931;44.874;-1.092;2023-02-15T02:27:50;102289.06;;;6.69;100.00
9784;BME280;4931;44.874;-1.092;2023-02-15T02:44:04;102285.78;;;6.47;100.00
9784;BME280;4931;44.874;-1.092;2023-02-15T02:46:38;102284.97;;;6.46;100.00
9784;BME280;4931;44.874;-1.092;2023-02-15T02:49:05;102277.41;;;6.48;100.00
9784;BME280;4931;44.874;-1.092;2023-02-15T02:51:31;102278.84;;;6.51;100.00
9784;BME280;4931;44.874;-1.092;2023-02-15T02:53:59;102273.03;;;6.47;100.00
9784;BME280;4931;44.874;-1.092;2023-02-15T02:56:42;102270.94;;;6.43;100.00
9784;BME280;4931;44.874;-1.092;2023-02-15T02:59:20;102285.16;;;6.52;100.00
9784;BME280;4931;44.874;-1.092;2023-02-15T03:01:54;102282.63;;;6.57;100.00
9784;BME280;4931;44.874;-1.092;2023-02-15T03:04:25;102279.72;;;6.52;100.00
9784;BME280;4931;44.874;-1.092;2023-02-15T03:06:57;102277.00;;;6.52;100.00
9784;BME280;4931;44.874;-1.092;2023-02-15T03:09:30;102276.56;;;6.48;100.00
9784;BME280;4931;44.874;-1.092;2023-02-15T03:17:27;102274.53;;;6.30;100.00
9784;BME280;4931;44.874;-1.092;2023-02-15T03:19:56;102269.94;;;6.24;100.00
9784;BME280;4931;44.874;-1.092;2023-02-15T03:22:29;102263.84;;;6.28;100.00
9784;BME280;4931;44.874;-1.092;2023-02-15T03:25:14;102257.97;;;6.25;100.00
9784;BME280;4931;44.874;-1.092;2023-02-15T03:27:46;102268.06;;;6.18;100.00
9784;BME280;4931;44.874;-1.092;2023-02-15T03:30:14;102270.13;;;6.22;100.00
9784;BME280;4931;44.874;-1.092;2023-02-15T03:32:41;102270.56;;;6.26;100.00
9784;BME280;4931;44.874;-1.092;2023-02-15T03:35:09;102283.38;;;6.25;100.00
9784;BME280;4931;44.874;-1.092;2023-02-15T03:37:47;102272.69;;;6.24;100.00
9784;BME280;4931;44.874;-1.092;2023-02-15T03:40:41;102267.63;;;6.27;100.00
9784;BME280;4931;44.874;-1.092;2023-02-15T03:45:59;102276.84;;;6.20;100.00
9784;BME280;4931;44.874;-1.092;2023-02-15T03:48:36;102280.66;;;6.19;100.00
9784;BME280;4931;44.874;-1.092;2023-02-15T03:51:08;102276.47;;;6.09;100.00
9784;BME280;4931;44.874;-1.092;2023-02-15T03:53:54;102280.63;;;6.12;100.00
9784;BME280;4931;44.874;-1.092;2023-02-15T03:56:21;102282.34;;;6.06;100.00
9784;BME280;4931;44.874;-1.092;2023-02-15T03:58:47;102281.72;;;6.04;100.00
9784;BME280;4931;44.874;-1.092;2023-02-15T04:01:35;102273.94;;;6.08;100.00
9784;BME280;4931;44.874;-1.092;2023-02-15T04:04:25;102273.94;;;6.08;100.00
9784;BME280;4931;44.874;-1.092;2023-02-15T04:06:51;102266.81;;;6.13;100.00
9784;BME280;4931;44.874;-1.092;2023-02-15T04:09:17;102265.16;;;6.12;100.00
9784;BME280;4931;44.874;-1.092;2023-02-15T04:12:01;102259.69;;;6.12;100.00
9784;BME280;4931;44.874;-1.092;2023-02-15T04:14:26;102272.06;;;6.15;100.00
9784;BME280;4931;44.874;-1.092;2023-02-15T04:17:11;102276.25;;;6.11;100.00
9784;BME280;4931;44.874;-1.092;2023-02-15T04:19:36;102272.69;;;6.10;100.00
9784;BME280;4931;44.874;-1.092;2023-02-15T04:22:20;102271.03;;;6.03;100.00
9784;BME280;4931;44.874;-1.092;2023-02-15T04:25:05;102273.13;;;6.07;100.00
9784;BME280;4931;44.874;-1.092;2023-02-15T04:27:45;102283.59;;;6.04;100.00
9784;BME280;4931;44.874;-1.092;2023-02-15T04:30:12;102277.53;;;6.08;100.00
9784;BME280;4931;44.874;-1.092;2023-02-15T04:32:38;102284.03;;;6.07;100.00
9784;BME280;4931;44.874;-1.092;2023-02-15T04:35:04;102280.25;;;6.08;100.00
9784;BME280;4931;44.874;-1.092;2023-02-15T04:37:30;102279.81;;;6.11;100.00
9784;BME280;4931;44.874;-1.092;2023-02-15T04:39:56;102278.13;;;6.10;100.00
9784;BME280;4931;44.874;-1.092;2023-02-15T04:42:24;102274.81;;;6.08;100.00
9784;BME280;4931;44.874;-1.092;2023-02-15T04:44:50;102273.72;;;5.96;100.00
9784;BME280;4931;44.874;-1.092;2023-02-15T04:47:16;102281.91;;;5.96;100.00
9784;BME280;4931;44.874;-1.092;2023-02-15T04:49:41;102276.25;;;5.91;100.00
9784;BME280;4931;44.874;-1.092;2023-02-15T04:52:07;102275.41;;;5.97;100.00
9784;BME280;4931;44.874;-1.092;2023-02-15T04:54:33;102281.09;;;6.02;100.00
9784;BME280;4931;44.874;-1.092;2023-02-15T04:56:58;102283.81;;;6.02;100.00
9784;BME280;4931;44.874;-1.092;2023-02-15T04:59:24;102287.38;;;6.03;100.00
9784;BME280;4931;44.874;-1.092;2023-02-15T05:01:49;102286.09;;;6.05;100.00
9784;BME280;4931;44.874;-1.092;2023-02-15T05:04:15;102289.03;;;6.10;100.00
9784;BME280;4931;44.874;-1.092;2023-02-15T05:06:40;102279.84;;;5.98;100.00
9784;BME280;4931;44.874;-1.092;2023-02-15T05:09:06;102279.84;;;6.05;100.00
9784;BME280;4931;44.874;-1.092;2023-02-15T05:11:32;102271.84;;;5.96;100.00
9784;BME280;4931;44.874;-1.092;2023-02-15T05:13:57;102276.09;;;5.99;100.00
9784;BME280;4931;44.874;-1.092;2023-02-15T05:16:23;102280.88;;;5.90;100.00
9784;BME280;4931;44.874;-1.092;2023-02-15T05:18:48;102284.84;;;5.94;100.00
9784;BME280;4931;44.874;-1.092;2023-02-15T05:21:14;102291.34;;;5.87;100.00
9784;BME280;4931;44.874;-1.092;2023-02-15T05:23:42;102282.75;;;5.90;100.00
9784;BME280;4931;44.874;-1.092;2023-02-15T05:26:11;102282.97;;;5.95;100.00
9784;BME280;4931;44.874;-1.092;2023-02-15T05:28:55;102284.41;;;5.97;100.00
9784;BME280;4931;44.874;-1.092;2023-02-15T05:31:20;102288.63;;;6.00;100.00
9784;BME280;4931;44.874;-1.092;2023-02-15T05:33:46;102292.44;;;5.99;100.00
9784;BME280;4931;44.874;-1.092;2023-02-15T05:36:11;102289.69;;;5.99;100.00
9784;BME280;4931;44.874;-1.092;2023-02-15T05:38:37;102292.00;;;6.02;100.00
9784;BME280;4931;44.874;-1.092;2023-02-15T05:41:03;102300.38;;;6.01;100.00
9784;BME280;4931;44.874;-1.092;2023-02-15T05:43:30;102297.44;;;6.02;100.00
9784;BME280;4931;44.874;-1.092;2023-02-15T05:45:55;102301.63;;;6.05;100.00
9784;BME280;4931;44.874;-1.092;2023-02-15T05:48:23;102299.31;;;6.08;100.00
9784;BME280;4931;44.874;-1.092;2023-02-15T05:51:01;102307.69;;;6.13;100.00
9784;BME280;4931;44.874;-1.092;2023-02-15T05:53:28;102309.19;;;6.09;100.00
9784;BME280;4931;44.874;-1.092;2023-02-15T05:55:54;102310.41;;;6.00;100.00
9784;BME280;4931;44.874;-1.092;2023-02-15T05:58:28;102308.78;;;5.99;100.00
9784;BME280;4931;44.874;-1.092;2023-02-15T06:00:54;102308.34;;;6.02;100.00
9784;BME280;4931;44.874;-1.092;2023-02-15T06:03:19;102307.50;;;5.95;100.00
9784;BME280;4931;44.874;-1.092;2023-02-15T06:05:45;102313.34;;;5.92;100.00
9784;BME280;4931;44.874;-1.092;2023-02-15T06:08:11;102313.34;;;5.92;100.00
9784;BME280;4931;44.874;-1.092;2023-02-15T06:10:36;102309.56;;;5.86;100.00
9784;BME280;4931;44.874;-1.092;2023-02-15T06:13:02;102316.28;;;5.84;100.00
9784;BME280;4931;44.874;-1.092;2023-02-15T06:15:27;102319.22;;;5.89;100.00
9784;BME280;4931;44.874;-1.092;2023-02-15T06:17:53;102313.97;;;5.87;100.00
9784;BME280;4931;44.874;-1.092;2023-02-15T06:20:18;102307.06;;;5.85;100.00
9784;BME280;4931;44.874;-1.092;2023-02-15T06:22:44;102307.91;;;5.78;100.00
9784;BME280;4931;44.874;-1.092;2023-02-15T06:25:09;102304.53;;;5.76;100.00
9784;BME280;4931;44.874;-1.092;2023-02-15T06:27:37;102310.41;;;5.73;100.00
9784;BME280;4931;44.874;-1.092;2023-02-15T06:30:04;102301.00;;;5.69;100.00
9784;BME280;4931;44.874;-1.092;2023-02-15T06:32:31;102310.41;;;5.73;100.00
9784;BME280;4931;44.874;-1.092;2023-02-15T06:34:56;102309.16;;;5.69;100.00
9784;BME280;4931;44.874;-1.092;2023-02-15T06:37:22;102308.53;;;5.67;100.00
9784;BME280;4931;44.874;-1.092;2023-02-15T06:39:48;102309.16;;;5.69;100.00
9784;BME280;4931;44.874;-1.092;2023-02-15T06:42:13;102310.41;;;5.73;100.00
9784;BME280;4931;44.874;-1.092;2023-02-15T06:44:38;102322.56;;;5.64;100.00
9784;BME280;4931;44.874;-1.092;2023-02-15T06:47:04;102320.47;;;5.66;100.00
9784;BME280;4931;44.874;-1.092;2023-02-15T06:49:29;102317.53;;;5.61;100.00
9784;BME280;4931;44.874;-1.092;2023-02-15T06:51:55;102318.16;;;5.63;100.00
9784;BME280;4931;44.874;-1.092;2023-02-15T06:54:20;102303.28;;;5.59;100.00
9784;BME280;4931;44.874;-1.092;2023-02-15T06:56:46;102314.81;;;5.61;100.00
9784;BME280;4931;44.874;-1.092;2023-02-15T06:59:11;102311.66;;;5.51;100.00
9784;BME280;4931;44.874;-1.092;2023-02-15T07:01:37;102319.19;;;5.62;100.00
9784;BME280;4931;44.874;-1.092;2023-02-15T07:04:03;102324.03;;;5.67;100.00
9784;BME280;4931;44.874;-1.092;2023-02-15T07:06:32;102327.19;;;5.70;100.00
9784;BME280;4931;44.874;-1.092;2023-02-15T07:08:58;102328.00;;;5.64;100.00
9784;BME280;4931;44.874;-1.092;2023-02-15T07:11:24;102328.81;;;5.58;100.00
9784;BME280;4931;44.874;-1.092;2023-02-15T07:14:08;102338.06;;;5.70;100.00
9784;BME280;4931;44.874;-1.092;2023-02-15T07:16:33;102345.81;;;5.53;100.00
9784;BME280;4931;44.874;-1.092;2023-02-15T07:18:59;102342.66;;;5.49;100.00
9784;BME280;4931;44.874;-1.092;2023-02-15T07:21:25;102340.16;;;5.55;100.00
9784;BME280;4931;44.874;-1.092;2023-02-15T07:23:50;102351.03;;;5.55;100.00
9784;BME280;4931;44.874;-1.092;2023-02-15T07:26:16;102349.78;;;5.44;100.00
9784;BME280;4931;44.874;-1.092;2023-02-15T07:28:42;102349.75;;;5.37;100.00
9784;BME280;4931;44.874;-1.092;2023-02-15T07:31:07;102343.66;;;5.28;100.00
9784;BME280;4931;44.874;-1.092;2023-02-15T07:33:34;102337.41;;;5.35;100.00
9784;BME280;4931;44.874;-1.092;2023-02-15T07:36:01;102343.69;;;5.42;100.00
9784;BME280;4931;44.874;-1.092;2023-02-15T07:38:35;102342.63;;;5.36;100.00
9784;BME280;4931;44.874;-1.092;2023-02-15T07:41:05;102342.22;;;5.39;100.00
9784;BME280;4931;44.874;-1.092;2023-02-15T07:43:34;102340.75;;;5.43;100.00
9784;BME280;4931;44.874;-1.092;2023-02-15T07:46:01;102351.03;;;5.41;100.00
9784;BME280;4931;44.874;-1.092;2023-02-15T07:48:27;102343.06;;;5.46;100.00
9784;BME280;4931;44.874;-1.092;2023-02-15T07:50:53;102354.78;;;5.54;100.00
9784;BME280;4931;44.874;-1.092;2023-02-15T07:53:18;102361.91;;;5.55;100.00
9784;BME280;4931;44.874;-1.092;2023-02-15T07:55:44;102367.81;;;5.65;100.00
9784;BME280;4931;44.874;-1.092;2023-02-15T07:58:09;102363.41;;;5.64;100.00
9784;BME280;4931;44.874;-1.092;2023-02-15T08:00:35;102367.81;;;5.65;100.00
9784;BME280;4931;44.874;-1.092;2023-02-15T08:03:23;102378.06;;;5.63;100.00
9784;BME280;4931;44.874;-1.092;2023-02-15T08:05:55;102384.97;;;5.72;100.00
9784;BME280;4931;44.874;-1.092;2023-02-15T08:08:22;102382.91;;;5.74;100.00
9784;BME280;4931;44.874;-1.092;2023-02-15T08:11:01;102382.91;;;5.74;100.00
9784;BME280;4931;44.874;-1.092;2023-02-15T08:13:47;102380.59;;;5.91;100.00
9784;BME280;4931;44.874;-1.092;2023-02-15T08:18:46;102390.06;;;6.42;100.00
9784;BME280;4931;44.874;-1.092;2023-02-15T08:21:13;102390.44;;;6.59;100.00
9784;BME280;4931;44.874;-1.092;2023-02-15T08:23:38;102394.16;;;6.72;100.00
9784;BME280;4931;44.874;-1.092;2023-02-15T08:26:04;102394.56;;;6.82;100.00
9784;BME280;4931;44.874;-1.092;2023-02-15T08:28:30;102397.50;;;6.80;100.00
9784;BME280;4931;44.874;-1.092;2023-02-15T08:31:06;102393.19;;;7.11;100.00
9784;BME280;4931;44.874;-1.092;2023-02-15T08:33:32;102388.00;;;7.42;100.00
9784;BME280;4931;44.874;-1.092;2023-02-15T08:36:02;102396.78;;;7.51;100.00
9784;BME280;4931;44.874;-1.092;2023-02-15T08:38:28;102403.06;;;7.51;100.00
9784;BME280;4931;44.874;-1.092;2023-02-15T08:40:53;102402.56;;;7.68;100.00
9784;BME280;4931;44.874;-1.092;2023-02-15T08:43:19;102406.38;;;7.60;100.00
9784;BME280;4931;44.874;-1.092;2023-02-15T08:45:44;102402.50;;;7.74;100.00
9784;BME280;4931;44.874;-1.092;2023-02-15T08:48:10;102407.09;;;7.80;100.00
9784;BME280;4931;44.874;-1.092;2023-02-15T08:50:35;102407.88;;;7.88;100.00
9784;BME280;4931;44.874;-1.092;2023-02-15T08:53:01;102416.13;;;8.06;100.00
9784;BME280;4931;44.874;-1.092;2023-02-15T08:55:26;102415.09;;;8.33;100.00
9784;BME280;4931;44.874;-1.092;2023-02-15T08:57:52;102417.16;;;8.37;100.00
9784;BME280;4931;44.874;-1.092;2023-02-15T09:00:21;102415.03;;;8.39;100.00
9784;BME280;4931;44.874;-1.092;2023-02-15T09:02:48;102414.47;;;8.56;100.00
9784;BME280;4931;44.874;-1.092;2023-02-15T09:05:13;102417.69;;;8.71;100.00
9784;BME280;4931;44.874;-1.092;2023-02-15T09:07:39;102409.94;;;8.87;100.00
9784;BME280;4931;44.874;-1.092;2023-02-15T09:10:05;102416.47;;;9.04;100.00
9784;BME280;4931;44.874;-1.092;2023-02-15T09:12:31;102408.72;;;9.01;100.00
9784;BME280;4931;44.874;-1.092;2023-02-15T09:14:56;102415.56;;;8.92;100.00
9784;BME280;4931;44.874;-1.092;2023-02-15T09:17:22;102417.84;;;9.13;100.00
9784;BME280;4931;44.874;-1.092;2023-02-15T09:19:47;102423.59;;;9.24;100.00
9784;BME280;4931;44.874;-1.092;2023-02-15T09:22:13;102433.19;;;9.14;100.00
9784;BME280;4931;44.874;-1.092;2023-02-15T09:24:38;102433.66;;;9.30;100.00
9784;BME280;4931;44.874;-1.092;2023-02-15T09:27:04;102429.72;;;9.56;100.00
9784;BME280;4931;44.874;-1.092;2023-02-15T09:29:29;102427.75;;;9.75;100.00
9784;BME280;4931;44.874;-1.092;2023-02-15T09:31:55;102434.41;;;9.79;100.00
9784;BME280;4931;44.874;-1.092;2023-02-15T09:34:22;102434.03;;;10.06;100.00
9784;BME280;4931;44.874;-1.092;2023-02-15T09:36:48;102441.84;;;9.91;100.00
9784;BME280;4931;44.874;-1.092;2023-02-15T09:39:15;102442.94;;;10.02;100.00
9784;BME280;4931;44.874;-1.092;2023-02-15T09:58:37;102455.06;;;11.07;100.00
9784;BME280;4931;44.874;-1.092;2023-02-15T10:04:01;102458.16;;;11.52;100.00
9784;BME280;4931;44.874;-1.092;2023-02-15T10:06:43;102454.97;;;11.43;100.00
9784;BME280;4931;44.874;-1.092;2023-02-15T10:20:30;102463.72;;;12.49;100.00
9784;BME280;4931;44.874;-1.092;2023-02-15T10:25:49;102477.59;;;12.93;100.00
9784;BME280;4931;44.874;-1.092;2023-02-15T10:28:23;102463.56;;;13.17;100.00
9784;BME280;4931;44.874;-1.092;2023-02-15T10:30:57;102472.84;;;12.88;100.00
9784;BME280;4931;44.874;-1.092;2023-02-15T10:46:41;102468.66;;;14.29;100.00
9784;BME280;4931;44.874;-1.092;2023-02-15T10:55:20;102479.81;;;14.44;100.00
9784;BME280;4931;44.874;-1.092;2023-02-15T10:58:05;102479.31;;;14.53;100.00
9784;BME280;4931;44.874;-1.092;2023-02-15T11:00:42;102483.63;;;14.38;100.00
9784;BME280;4931;44.874;-1.092;2023-02-15T11:03:18;102478.94;;;14.39;100.00
9784;BME280;4931;44.874;-1.092;2023-02-15T11:08:46;102478.19;;;14.86;100.00
9784;BME280;4931;44.874;-1.092;2023-02-15T11:11:21;102476.13;;;15.09;100.00
9784;BME280;4931;44.874;-1.092;2023-02-15T11:13:51;102473.16;;;15.31;100.00
9784;BME280;4931;44.874;-1.092;2023-02-15T11:16:23;102467.03;;;15.24;100.00
9784;BME280;4931;44.874;-1.092;2023-02-15T11:21:22;102469.31;;;15.42;100.00
9784;BME280;4931;44.874;-1.092;2023-02-15T11:23:51;102455.84;;;15.62;100.00
9784;BME280;4931;44.874;-1.092;2023-02-15T11:26:46;102465.81;;;15.73;100.00
9784;BME280;4931;44.874;-1.092;2023-02-15T11:31:57;102468.94;;;16.07;100.00
9784;BME280;4931;44.874;-1.092;2023-02-15T11:34:27;102468.38;;;15.90;100.00
9784;BME280;4931;44.874;-1.092;2023-02-15T11:36:57;102472.81;;;16.06;100.00
9784;BME280;4931;44.874;-1.092;2023-02-15T11:39:26;102467.28;;;16.27;100.00
9784;BME280;4931;44.874;-1.092;2023-02-15T11:41:58;102470.59;;;16.19;100.00
9784;BME280;4931;44.874;-1.092;2023-02-15T11:44:29;102467.81;;;16.55;100.00
9784;BME280;4931;44.874;-1.092;2023-02-15T11:46:58;102468.94;;;16.23;100.00
9784;BME280;4931;44.874;-1.092;2023-02-15T11:49:33;102468.34;;;16.67;100.00
9784;BME280;4931;44.874;-1.092;2023-02-15T11:52:06;102469.44;;;16.66;100.00
9784;BME280;4931;44.874;-1.092;2023-02-15T11:54:34;102467.53;;;16.51;100.00
9784;BME280;4931;44.874;-1.092;2023-02-15T11:57:33;102455.06;;;16.69;100.00
9784;BME280;4931;44.874;-1.092;2023-02-15T12:00:14;102462.22;;;16.81;100.00
9784;BME280;4931;44.874;-1.092;2023-02-15T12:02:46;102461.72;;;16.68;100.00
9784;BME280;4931;44.874;-1.092;2023-02-15T12:05:17;102464.44;;;16.84;100.00
9784;BME280;4931;44.874;-1.092;2023-02-15T12:07:48;102458.34;;;16.76;100.00
9784;BME280;4931;44.874;-1.092;2023-02-15T12:10:28;102449.03;;;16.36;100.00
9784;BME280;4931;44.874;-1.092;2023-02-15T12:13:16;102443.47;;;16.10;100.00
9784;BME280;4931;44.874;-1.092;2023-02-15T12:15:44;102456.16;;;16.68;100.00
9784;BME280;4931;44.874;-1.092;2023-02-15T12:21:25;102457.16;;;17.14;100.00
9784;BME280;4931;44.874;-1.092;2023-02-15T12:23:54;102451.97;;;17.52;100.00
9784;BME280;4931;44.874;-1.092;2023-02-15T12:26:29;102459.41;;;17.67;100.00
9784;BME280;4931;44.874;-1.092;2023-02-15T12:28:57;102455.75;;;17.71;94.57
9784;BME280;4931;44.874;-1.092;2023-02-15T12:31:31;102453.09;;;17.56;92.99
9784;BME280;4931;44.874;-1.092;2023-02-15T12:33:59;102450.13;;;17.82;97.29
9784;BME280;4931;44.874;-1.092;2023-02-15T12:36:32;102438.81;;;17.78;90.21
9784;BME280;4931;44.874;-1.092;2023-02-15T12:41:39;102433.88;;;17.65;83.73
9784;BME280;4931;44.874;-1.092;2023-02-15T12:46:40;102435.13;;;17.83;85.55
9784;BME280;4931;44.874;-1.092;2023-02-15T12:51:55;102440.97;;;17.41;75.50
9784;BME280;4931;44.874;-1.092;2023-02-15T12:56:50;102440.19;;;17.75;77.78
9784;BME280;4931;44.874;-1.092;2023-02-15T12:59:15;102426.13;;;17.12;74.01
9784;BME280;4931;44.874;-1.092;2023-02-15T13:01:42;102437.00;;;17.53;73.88
9784;BME280;4931;44.874;-1.092;2023-02-15T13:04:27;102429.66;;;17.28;72.73
9784;BME280;4931;44.874;-1.092;2023-02-15T13:07:00;102430.09;;;16.80;73.99
9784;BME280;4931;44.874;-1.092;2023-02-15T13:14:45;102430.47;;;17.28;74.99
9784;BME280;4931;44.874;-1.092;2023-02-15T13:17:13;102432.09;;;17.39;74.48
9784;BME280;4931;44.874;-1.092;2023-02-15T13:19:43;102432.47;;;17.12;73.51
9784;BME280;4931;44.874;-1.092;2023-02-15T13:22:22;102441.31;;;17.24;76.30
9784;BME280;4931;44.874;-1.092;2023-02-15T13:24:54;102431.41;;;17.08;76.52
9784;BME280;4931;44.874;-1.092;2023-02-15T13:27:23;102423.94;;;17.03;76.93
9784;BME280;4931;44.874;-1.092;2023-02-15T13:29:52;102419.25;;;16.83;80.08
9784;BME280;4931;44.874;-1.092;2023-02-15T13:32:28;102421.63;;;17.26;77.62
9784;BME280;4931;44.874;-1.092;2023-02-15T13:35:00;102414.72;;;17.63;80.43
9784;BME280;4931;44.874;-1.092;2023-02-15T13:38:11;102420.03;;;18.04;76.27
9784;BME280;4931;44.874;-1.092;2023-02-15T13:48:01;102417.38;;;17.44;77.94
9784;BME280;4931;44.874;-1.092;2023-02-15T13:53:36;102406.66;;;17.67;80.14
9784;BME280;4931;44.874;-1.092;2023-02-15T14:02:30;102402.09;;;17.86;74.51
9784;BME280;4931;44.874;-1.092;2023-02-15T14:05:25;102400.03;;;18.02;74.25
9784;BME280;4931;44.874;-1.092;2023-02-15T14:11:02;102411.34;;;17.71;80.63
9784;BME280;4931;44.874;-1.092;2023-02-15T14:16:27;102414.13;;;17.71;79.69
9784;BME280;4931;44.874;-1.092;2023-02-15T14:19:39;102413.84;;;17.23;76.91
9784;BME280;4931;44.874;-1.092;2023-02-15T14:25:13;102421.41;;;17.12;81.57
9784;BME280;4931;44.874;-1.092;2023-02-15T14:28:15;102422.72;;;17.30;80.49
9784;BME280;4931;44.874;-1.092;2023-02-15T14:30:44;102417.81;;;17.06;79.50
9784;BME280;4931;44.874;-1.092;2023-02-15T14:33:40;102430.53;;;17.18;80.91
9784;BME280;4931;44.874;-1.092;2023-02-15T14:36:12;102428.47;;;17.44;79.21
9784;BME280;4931;44.874;-1.092;2023-02-15T14:41:44;102435.47;;;17.31;83.87
9784;BME280;4931;44.874;-1.092;2023-02-15T14:44:38;102427.78;;;17.18;83.72
9784;BME280;4931;44.874;-1.092;2023-02-15T14:47:17;102422.63;;;17.46;85.83
9784;BME280;4931;44.874;-1.092;2023-02-15T14:49:44;102426.53;;;17.39;86.24
9784;BME280;4931;44.874;-1.092;2023-02-15T14:52:11;102427.56;;;17.54;83.88
9784;BME280;4931;44.874;-1.092;2023-02-15T15:04:37;102425.41;;;16.59;88.37
9784;BME280;4931;44.874;-1.092;2023-02-15T15:07:19;102430.66;;;16.76;85.53
9784;BME280;4931;44.874;-1.092;2023-02-15T15:09:57;102427.88;;;16.71;86.51
9784;BME280;4931;44.874;-1.092;2023-02-15T15:14:49;102432.91;;;16.64;88.63
9784;BME280;4931;44.874;-1.092;2023-02-15T15:20:13;102440.94;;;16.55;91.98
9784;BME280;4931;44.874;-1.092;2023-02-15T15:22:40;102435.13;;;16.41;92.79
9784;BME280;4931;44.874;-1.092;2023-02-15T15:25:55;102435.97;;;16.42;89.69
9784;BME280;4931;44.874;-1.092;2023-02-15T15:27:55;102441.25;;;16.38;90.28
9784;BME280;4931;44.874;-1.092;2023-02-15T15:36:18;102426.00;;;16.36;91.20
9784;BME280;4931;44.874;-1.092;2023-02-15T15:45:37;102434.03;;;16.27;94.70
9784;BME280;4931;44.874;-1.092;2023-02-15T15:51:12;102437.66;;;15.97;100.00
9784;BME280;4931;44.874;-1.092;2023-02-15T15:53:42;102430.47;;;15.85;100.00
9784;BME280;4931;44.874;-1.092;2023-02-15T15:56:39;102426.28;;;15.98;100.00
9784;BME280;4931;44.874;-1.092;2023-02-15T15:59:07;102437.38;;;15.83;99.42
9784;BME280;4931;44.874;-1.092;2023-02-15T16:01:41;102435.38;;;15.73;100.00
9784;BME280;4931;44.874;-1.092;2023-02-15T16:04:12;102445.34;;;15.69;100.00
9784;BME280;4931;44.874;-1.092;2023-02-15T16:06:38;102434.53;;;15.67;100.00